Flight Track Log - Related Links

Times and Time Zones

All times are in EDT time to prevent confusion due to time zone crossing. See the PRY2 flight status page for this flight to view local times or setup timezone preferences in your user account.

Time Position Orientation Groundspeed Altitude Reporting Facility
EDT Latitude Longitude Course Direction KTS MPH feet Rate Location/Type
Mon 04:30:59 PM 41.4133 -78.4761 294° West 159 183 2,600  Level Cleveland Center
Mon 04:32:59 PM 41.4419 -78.5611 282° West 88 101 4,400 933 Climbing Cleveland Center
Mon 04:33:59 PM 41.4489 -78.6053 279° West 110 127 5,400 950 Climbing Cleveland Center
Mon 04:34:59 PM 41.4539 -78.6467 282° West 123 142 6,300 850 Climbing Cleveland Center
Mon 04:35:59 PM 41.4608 -78.6906 279° West 123 142 7,100 850 Climbing Cleveland Center
Mon 04:36:59 PM 41.4656 -78.7294 283° West 123 142 8,000 900 Climbing Cleveland Center
Mon 04:37:59 PM 41.4725 -78.7708 279° West 123 142 8,900 850 Climbing Cleveland Center
Mon 04:38:59 PM 41.4772 -78.8094 281° West 123 142 9,700 550 Climbing Cleveland Center
Mon 04:39:59 PM 41.4842 -78.8564 284° West 118 136 10,000 150 Climbing Cleveland Center
Mon 04:40:59 PM 41.4933 -78.9061 278° West 132 152 10,000 -50 Level Cleveland Center
Mon 04:41:59 PM 41.4983 -78.9558 281° West 137 158 9,900  Descending Cleveland Center
Mon 04:42:59 PM 41.5050 -79.0028 284° West 137 158 10,000 50 Climbing Cleveland Center
Mon 04:43:59 PM 41.5142 -79.0525 278° West 142 163 10,000 -50 Level Cleveland Center
Mon 04:44:59 PM 41.5189 -79.0994 284° West 142 163 9,900  Descending Cleveland Center
Mon 04:45:59 PM 41.5278 -79.1464 281° West 142 163 10,000 50 Climbing Cleveland Center
Mon 04:46:59 PM 41.5347 -79.1961 281° West 142 163 10,000  Level Cleveland Center
Mon 04:47:59 PM 41.5417 -79.2461 277° West 142 163 10,000  Level Cleveland Center
Mon 04:48:59 PM 41.5464 -79.2958 281° West 142 163 10,000  Level Cleveland Center
Mon 04:49:59 PM 41.5531 -79.3400 280° West 142 163 10,000  Level Cleveland Center
Mon 04:50:59 PM 41.5597 -79.3900 281° West 142 163 10,000  Level Cleveland Center
Mon 04:51:59 PM 41.5667 -79.4369 280° West 142 163 10,000  Level Cleveland Center
Mon 04:53:11 PM 41.5733 -79.4867 281° West 142 163 10,000  Level Cleveland Center
Mon 04:54:11 PM 41.5822 -79.5478 277° West 142 163 10,000 -50 Level Cleveland Center
Mon 04:55:11 PM 41.5867 -79.5947 281° West 142 163 9,900  Descending Cleveland Center
Mon 04:56:11 PM 41.5933 -79.6419 283° West 142 163 10,000 50 Climbing Cleveland Center
Mon 04:57:11 PM 41.6022 -79.6919 277° West 142 163 10,000  Level Cleveland Center
Mon 04:58:11 PM 41.6067 -79.7389 280° West 135 155 10,000  Level Cleveland Center
Mon 04:59:11 PM 41.6133 -79.7889 283° West 142 163 10,000 -50 Level Cleveland Center
Mon 05:00:11 PM 41.6219 -79.8386 274° West 142 163 9,900  Descending Cleveland Center
Mon 05:01:23 PM 41.6244 -79.8858 281° West 142 163 10,000 45 Climbing Cleveland Center
Mon 05:02:23 PM 41.6331 -79.9442 283° West 142 163 10,000  Level Cleveland Center
Mon 05:03:23 PM 41.6417 -79.9942 280° West 142 163 10,000  Level Cleveland Center
Mon 05:04:23 PM 41.6481 -80.0414 280° West 142 163 10,000  Level Cleveland Center
Mon 05:05:23 PM 41.6547 -80.0911 276° West 142 163 10,000 -50 Level Cleveland Center
Mon 05:06:23 PM 41.6589 -80.1411 287° West 142 163 9,900  Descending Cleveland Center
Mon 05:07:23 PM 41.6675 -80.1800 273° West 142 163 10,000 50 Climbing Cleveland Center
Mon 05:08:23 PM 41.6697 -80.2439 288° West 142 163 10,000  Level Cleveland Center
Mon 05:09:23 PM 41.6803 -80.2883 277° West 142 163 10,000  Level Cleveland Center
Mon 05:10:23 PM 41.6844 -80.3358 279° West 142 163 10,000 -25 Level Cleveland Center
Mon 05:13:23 PM 41.7014 -80.4803 280° West 137 158 9,900  Descending Cleveland Center
Mon 05:18:23 PM 41.7347 -80.7333 279° West 142 163 10,000 10 Climbing Cleveland Center
Mon 05:23:23 PM 41.7633 -80.9728 279° West 142 163 10,000  Level Cleveland Center
Mon 05:24:23 PM 41.7694 -81.0231 279° West 133 153 10,000 -100 Level Cleveland Center
Mon 05:25:23 PM 41.7756 -81.0731 280° West 133 153 9,800 -500 Descending Cleveland Center
Mon 05:26:23 PM 41.7817 -81.1178 275° West 144 166 9,000 -800 Descending Cleveland Center
Mon 05:27:23 PM 41.7853 -81.1764 285° West 150 173 8,200 -500 Descending Cleveland Center
Mon 05:28:23 PM 41.7956 -81.2264 276° West 150 173 8,000 -100 Descending Cleveland Center
Mon 05:29:23 PM 41.7994 -81.2767 280° West 145 167 8,000  Level Cleveland Center
Mon 05:30:23 PM 41.8053 -81.3214 280° West 140 161 8,000  Level Cleveland Center
Mon 05:31:23 PM 41.8114 -81.3689 280° West 140 161 8,000  Level Cleveland Center
Mon 05:32:23 PM 41.8172 -81.4133 276° West 135 155 8,000  Level Cleveland Center
Mon 05:33:23 PM 41.8211 -81.4636 278° West 130 150 8,000  Level Cleveland Center
Mon 05:34:23 PM 41.8269 -81.5167 279° West 130 150 8,000  Level Cleveland Center
Mon 05:35:23 PM 41.8328 -81.5642 279° West 130 150 8,000  Level Cleveland Center
Mon 05:36:23 PM 41.8386 -81.6144 279° West 135 155 8,000  Level Cleveland Center
Mon 05:37:24 PM 41.8444 -81.6617 279° West 135 155 8,000  Level Cleveland Center
Mon 05:38:23 PM 41.8503 -81.7119 278° West 140 161 8,000  Level Cleveland Center
Mon 05:39:23 PM 41.8558 -81.7625 279° West 145 167 8,000  Level Cleveland Center
Mon 05:40:23 PM 41.8617 -81.8128 279° West 140 161 8,000  Level Cleveland Center
Mon 05:41:23 PM 41.8675 -81.8603 278° West 140 161 8,000  Level Cleveland Center
Mon 05:42:23 PM 41.8711 -81.8964 279° West 140 161 8,000  Level Cleveland Center
Mon 05:43:23 PM 41.8786 -81.9608 279° West 140 161 8,000  Level Cleveland Center
Mon 05:44:23 PM 41.8844 -82.0111 276° West 140 161 8,000  Level Cleveland Center
Mon 05:45:24 PM 41.8881 -82.0558 281° West 140 161 8,000  Level Cleveland Center
Mon 05:46:35 PM 41.8956 -82.1061 279° West 140 161 8,000  Level Cleveland Center
Mon 05:47:35 PM 41.9031 -82.1706 272° West 140 161 8,000  Level Cleveland Center
Mon 05:48:35 PM 41.9044 -82.2236 299° West 146 168 8,000  Level Cleveland Center
Mon 05:49:07 PM 41.9125 -82.2433 279° West 136 157 8,000  Level Cleveland Center
Mon 05:50:20 PM 41.9200 -82.3078 278° West 137 158 8,000  Level Cleveland Center
Mon 05:51:21 PM 41.9253 -82.3581 275° West 136 157 8,000  Level Cleveland Center
Mon 05:52:22 PM 41.9286 -82.4114 279° West 136 157 8,000  Level Cleveland Center
Mon 05:53:17 PM 41.9342 -82.4589 275° West 138 159 8,000  Level Cleveland Center
Mon 05:54:19 PM 41.9375 -82.5092 275° West 139 160 8,000  Level Cleveland Center
Mon 05:55:19 PM 41.9408 -82.5622 269° West 138 159 8,000  Level Cleveland Center
Mon 05:56:20 PM 41.9400 -82.6153 272° West 139 160 8,000  Level Cleveland Center
Mon 05:57:21 PM 41.9411 -82.6656 262° West 138 159 8,000  Level Cleveland Center
Mon 05:58:22 PM 41.9358 -82.7186 262° West 137 158 8,000  Level Cleveland Center
Mon 05:59:23 PM 41.9308 -82.7686 265° West 135 155 8,000  Level Cleveland Center
Mon 06:00:24 PM 41.9278 -82.8186 265° West 136 157 8,000  Level Cleveland Center
Mon 06:01:25 PM 41.9247 -82.8689 263° West 135 155 8,000  Level Cleveland Center
Mon 06:02:32 PM 41.9194 -82.9272 265° West 136 157 8,000  Level Cleveland Center
Mon 06:03:27 PM 41.9164 -82.9719 259° West 136 157 8,000  Level Cleveland Center
Mon 06:04:30 PM 41.9089 -83.0217 265° West 136 157 8,000  Level Cleveland Center
Mon 06:05:24 PM 41.9058 -83.0692 267° West 136 157 8,000  Level Cleveland Center
Mon 06:06:57 PM 41.9028 -83.1467 264° West 134 154 8,000  Level FAA TRACON SMA TRACON (SMA)
Mon 06:07:36 PM 41.9000 -83.1800 265° West 134 154 8,000  Level FAA TRACON SMA TRACON (SMA)
Mon 06:08:16 PM 41.8981 -83.2086 263° West 136 157 8,000  Level FAA TRACON SMA TRACON (SMA)
Mon 06:08:56 PM 41.8947 -83.2472 264° West 136 157 8,000  Level FAA TRACON SMA TRACON (SMA)
Mon 06:09:37 PM 41.8919 -83.2808 263° West 134 154 8,000  Level FAA TRACON SMA TRACON (SMA)
Mon 06:10:17 PM 41.8889 -83.3133 265° West 135 155 8,000  Level FAA TRACON SMA TRACON (SMA)
Mon 06:10:56 PM 41.8869 -83.3436 284° West 137 158 8,000  Level FAA TRACON SMA TRACON (SMA)
Mon 06:11:36 PM 41.8942 -83.3831 282° West 143 165 8,000  Level FAA TRACON SMA TRACON (SMA)
Mon 06:12:16 PM 41.8994 -83.4156 279° West 139 160 8,000  Level FAA TRACON SMA TRACON (SMA)
Mon 06:12:56 PM 41.9039 -83.4514 281° West 139 160 8,000  Level FAA TRACON SMA TRACON (SMA)
Mon 06:13:36 PM 41.9089 -83.4864 280° West 143 165 8,000  Level FAA TRACON SMA TRACON (SMA)
Mon 06:14:15 PM 41.9128 -83.5167 278° West 138 159 8,000  Level FAA TRACON SMA TRACON (SMA)
Mon 06:14:56 PM 41.9164 -83.5497 279° West 137 158 8,000  Level FAA TRACON SMA TRACON (SMA)
Mon 06:15:36 PM 41.9208 -83.5886 278° West 137 158 8,000  Level FAA TRACON SMA TRACON (SMA)
Mon 06:16:17 PM 41.9244 -83.6222 279° West 138 159 8,000  Level FAA TRACON SMA TRACON (SMA)
Mon 06:16:56 PM 41.9281 -83.6522 279° West 139 160 8,000  Level FAA TRACON SMA TRACON (SMA)
Mon 06:17:37 PM 41.9325 -83.6903 278° West 136 157 8,000  Level FAA TRACON SMA TRACON (SMA)
Mon 06:18:17 PM 41.9361 -83.7231 278° West 138 159 8,000  Level FAA TRACON SMA TRACON (SMA)
Mon 06:18:57 PM 41.9400 -83.7586 279° West 139 160 8,000  Level FAA TRACON SMA TRACON (SMA)
Mon 06:19:36 PM 41.9433 -83.7864 279° West 140 161 8,000  Level FAA TRACON SMA TRACON (SMA)
Mon 06:20:16 PM 41.9481 -83.8261 277° West 140 161 8,000  Level FAA TRACON SMA TRACON (SMA)
Mon 06:20:57 PM 41.9514 -83.8625 279° West 141 162 8,000  Level FAA TRACON SMA TRACON (SMA)
Mon 06:21:37 PM 41.9556 -83.8964 276° West 137 158 8,000  Level FAA TRACON SMA TRACON (SMA)
Mon 06:22:17 PM 41.9583 -83.9294 281° West 138 159 8,000  Level FAA TRACON SMA TRACON (SMA)
Mon 06:22:56 PM 41.9628 -83.9611 276° West 139 160 8,000  Level FAA TRACON SMA TRACON (SMA)
Mon 06:23:36 PM 41.9656 -83.9961 279° West 141 162 8,000  Level FAA TRACON SMA TRACON (SMA)
Mon 06:24:17 PM 41.9700 -84.0339 277° West 142 163 8,000  Level FAA TRACON SMA TRACON (SMA)
Mon 06:24:57 PM 41.9733 -84.0694 279° West 140 161 8,000  Level FAA TRACON SMA TRACON (SMA)
Mon 06:25:37 PM 41.9772 -84.1042 278° West 140 161 8,000  Level FAA TRACON SMA TRACON (SMA)
Mon 06:26:16 PM 41.9803 -84.1339 277° West 140 161 8,000  Level FAA TRACON SMA TRACON (SMA)
Mon 06:26:56 PM 41.9842 -84.1739 278° West 140 161 8,000  Level FAA TRACON SMA TRACON (SMA)
Mon 06:27:37 PM 41.9881 -84.2092 279° West 141 162 8,000  Level FAA TRACON SMA TRACON (SMA)
Mon 06:28:17 PM 41.9919 -84.2428 279° West 142 163 8,000  Level FAA TRACON SMA TRACON (SMA)
Mon 06:28:57 PM 41.9961 -84.2786 277° West 140 161 8,000  Level FAA TRACON SMA TRACON (SMA)
Mon 06:29:36 PM 41.9989 -84.3094 280° West 139 160 8,000  Level FAA TRACON SMA TRACON (SMA)
Mon 06:30:17 PM 42.0031 -84.3414 276° West 137 158 8,000  Level FAA TRACON SMA TRACON (SMA)
Mon 06:30:57 PM 42.0064 -84.3817 278° West 139 160 8,000  Level FAA TRACON SMA TRACON (SMA)
Mon 06:31:37 PM 42.0100 -84.4156 278° West 137 158 8,000  Level FAA TRACON SMA TRACON (SMA)
Mon 06:32:17 PM 42.0133 -84.4481 278° West 138 159 8,000  Level FAA TRACON SMA TRACON (SMA)
Mon 06:32:56 PM 42.0167 -84.4797 278° West 139 160 8,000  Level FAA TRACON SMA TRACON (SMA)
Mon 06:33:36 PM 42.0197 -84.5089 289° West 138 159 8,000  Level FAA TRACON SMA TRACON (SMA)
Mon 06:55:56 PM 42.3056 -85.6547 298° West 147 169 8,000  Level Chicago Center
Mon 06:59:56 PM 42.3850 -85.8611 297° West 153 176 8,000  Level Chicago Center
Mon 07:00:56 PM 42.4033 -85.9106 296° West 153 176 8,000  Level Chicago Center
Mon 07:01:56 PM 42.4214 -85.9603 299° West 153 176 8,000  Level Chicago Center
Mon 07:02:56 PM 42.4417 -86.0100 296° West 153 176 8,000  Level Chicago Center
Mon 07:03:56 PM 42.4597 -86.0597 295° West 153 176 8,000 -50 Level Chicago Center
Mon 07:04:56 PM 42.4756 -86.1067 286° West 153 176 7,900  Descending Chicago Center
Mon 07:05:56 PM 42.4875 -86.1625 281° West 153 176 8,000 50 Climbing Chicago Center
Mon 07:06:56 PM 42.4953 -86.2156 285° West 148 170 8,000  Level Chicago Center
Mon 07:07:56 PM 42.5072 -86.2742 284° West 148 170 8,000  Level Chicago Center
Mon 07:08:56 PM 42.5172 -86.3300 287° West 153 176 8,000  Level Chicago Center
Mon 07:09:56 PM 42.5314 -86.3942 282° West 153 176 8,000  Level Chicago Center
Mon 07:10:56 PM 42.5389 -86.4417 279° West 158 182 8,000  Level Chicago Center
Mon 07:11:56 PM 42.5467 -86.5089 274° West 158 182 8,000  Level Chicago Center
Mon 07:14:56 PM 42.5550 -86.6806 272° West 158 182 8,000  Level Chicago Center
Mon 07:15:56 PM 42.5561 -86.7311 272° West 158 182 8,000  Level Chicago Center
Mon 07:16:56 PM 42.5575 -86.7903 272° West 158 182 8,000  Level Chicago Center
Mon 07:19:56 PM 42.5611 -86.9622 272° West 158 182 8,000  Level Chicago Center
Mon 07:20:56 PM 42.5625 -87.0214 277° West 158 182 8,000  Level Chicago Center
Mon 07:21:56 PM 42.5678 -87.0831 267° West 158 182 8,000  Level Chicago Center
Mon 07:22:56 PM 42.5650 -87.1453 271° West 158 182 8,000  Level Chicago Center
Mon 07:23:56 PM 42.5658 -87.2017 269° West 158 182 8,000  Level Chicago Center
Mon 07:24:56 PM 42.5650 -87.2581 265° West 158 182 8,000  Level Chicago Center
Mon 07:25:56 PM 42.5617 -87.3144 272° West 158 182 8,000  Level Chicago Center
Mon 07:26:56 PM 42.5628 -87.3708 271° West 158 182 8,000  Level Chicago Center
Mon 07:27:56 PM 42.5639 -87.4331 271° West 167 192 8,000 -453 Level Chicago Center
Mon 07:31:34 PM 42.5667 -87.6500 270° West 159 183 5,900 -462 Descending KMKE
Mon 07:32:29 PM 42.5667 -87.7000 270° West 153 176 5,900  Level KMKE
Mon 07:33:29 PM 42.5667 -87.7667 270° West 154 177 5,900  Level KMKE
Mon 07:34:29 PM 42.5667 -87.8167 270° West 155 178 5,900  Level KMKE
Mon 07:35:35 PM 42.5667 -87.8833 270° West 152 175 5,900  Level KMKE
Mon 07:36:35 PM 42.5667 -87.9500 270° West 154 177 5,900  Level KMKE
Mon 07:37:35 PM 42.5667 -88.0000 270° West 155 178 5,900  Level KMKE
Mon 07:38:29 PM 42.5667 -88.0500 270° West 152 175 5,900  Level KMKE
Mon 07:39:29 PM 42.5667 -88.1167 270° West 152 175 5,900  Level KMKE
Mon 07:40:35 PM 42.5667 -88.1833 271° West 152 175 5,900 92 Level KMKE
Mon 08:01:08 PM 42.5819 -89.3133 270° West 156 180 7,900 81 Climbing Chicago Center
Mon 08:05:08 PM 42.5817 -89.5389 273° West 152 175 7,900  Level Chicago Center
Mon 08:06:08 PM 42.5836 -89.5922 270° West 152 175 7,900  Level Chicago Center
Mon 08:07:08 PM 42.5836 -89.6517 273° West 159 183 7,900  Level Chicago Center
Mon 08:08:08 PM 42.5856 -89.7081 270° West 159 183 7,900  Level Chicago Center
Mon 08:09:08 PM 42.5853 -89.7672 270° West 159 183 7,900  Level Chicago Center
Mon 08:10:08 PM 42.5850 -89.8236 273° West 159 183 7,900  Level Chicago Center
Mon 08:11:08 PM 42.5869 -89.8800 270° West 159 183 7,900  Level Chicago Center
Mon 08:12:08 PM 42.5867 -89.9392 272° West 159 183 7,900  Level Chicago Center
Mon 08:13:08 PM 42.5883 -89.9956 270° West 154 177 7,900  Level Chicago Center
Mon 08:14:08 PM 42.5881 -90.0519 267° West 154 177 7,900  Level Chicago Center
Mon 08:15:08 PM 42.5856 -90.1083 272° West 159 183 7,900  Level Chicago Center
Mon 08:16:20 PM 42.5872 -90.1733 269° West 154 177 7,900  Level Chicago Center
Mon 08:17:20 PM 42.5867 -90.2325 270° West 154 177 7,900 50 Level Chicago Center
Mon 08:18:20 PM 42.5864 -90.2861 269° West 154 177 8,000 50 Climbing Chicago Center
Mon 08:19:20 PM 42.5858 -90.3481 269° West 154 177 8,000  Level Chicago Center
Mon 08:20:20 PM 42.5853 -90.4017 272° West 154 177 8,000  Level Chicago Center
Mon 08:21:20 PM 42.5869 -90.4553 269° West 154 177 8,000  Level Chicago Center
Mon 08:22:20 PM 42.5864 -90.5144 269° West 154 177 8,000  Level Chicago Center
Mon 08:23:20 PM 42.5858 -90.5708 272° West 154 177 8,000  Level Chicago Center
Mon 08:24:20 PM 42.5872 -90.6244 269° West 154 177 8,000  Level Chicago Center
Mon 08:25:20 PM 42.5867 -90.6781 269° West 154 177 8,000  Level Chicago Center
Mon 08:26:20 PM 42.5861 -90.7344 266° West 154 177 8,000  Level Chicago Center
Mon 08:27:20 PM 42.5833 -90.7908 272° West 154 177 8,000  Level Chicago Center
Mon 08:28:20 PM 42.5847 -90.8444 269° West 154 177 8,000  Level Chicago Center
Mon 08:29:20 PM 42.5839 -90.9036 269° West 154 177 8,000  Level Chicago Center
Mon 08:30:20 PM 42.5831 -90.9572 269° West 154 177 8,000  Level Chicago Center
Mon 08:31:20 PM 42.5822 -91.0164 269° West 159 183 8,000  Level Chicago Center
Mon 08:32:20 PM 42.5814 -91.0728 269° West 159 183 8,000  Level Chicago Center
Mon 08:33:20 PM 42.5806 -91.1264 269° West 159 183 8,000  Level Chicago Center
Mon 08:34:20 PM 42.5797 -91.1797 272° West 159 183 8,000  Level Chicago Center
Mon 08:35:20 PM 42.5811 -91.2333 269° West 159 183 8,000  Level Chicago Center
Mon 08:36:20 PM 42.5803 -91.2897 268° West 159 183 8,000 -200 Level Chicago Center
Mon 08:37:20 PM 42.5792 -91.3461 269° West 159 183 7,600 -450 Descending Chicago Center
Mon 08:38:20 PM 42.5783 -91.3997 271° West 159 183 7,100 -450 Descending Chicago Center
Mon 08:39:20 PM 42.5792 -91.4589 269° West 159 183 6,700 -450 Descending Chicago Center
Mon 08:40:20 PM 42.5783 -91.5153 266° West 159 183 6,200 -500 Descending Chicago Center
Mon 08:41:20 PM 42.5750 -91.5744 268° West 159 183 5,700 -500 Descending Chicago Center
Mon 08:42:20 PM 42.5739 -91.6308 271° West 159 183 5,200 -500 Descending Chicago Center
Mon 08:43:20 PM 42.5747 -91.6900 266° West 159 183 4,700 -450 Descending Chicago Center
Mon 08:44:20 PM 42.5717 -91.7436 268° West 159 183 4,300 -500 Descending Chicago Center
Mon 08:45:20 PM 42.5703 -91.8028 266° West 159 183 3,700 -600 Descending Chicago Center
Mon 08:52:32 PM 42.5500 -92.1842 270° West  Level FlightAware Approximate
Mon 08:53:32 PM 42.5500 -92.2374 270° West  Level FlightAware Approximate
Mon 08:54:32 PM 42.5500 -92.2906 270° West  Level FlightAware Approximate
Mon 08:55:32 PM 42.5500 -92.3438 270° West  Level FlightAware Approximate
Mon 08:56:32 PM 42.5500 -92.3970 341° North  Level FlightAware Approximate
Mon 08:57:32 PM 42.5871 -92.4143 164° South  Level Estimated
Mon 08:58:32 PM 42.5500 -92.4000 358° North  Level FlightAware Approximate
Mon 08:59:32 PM 42.5892 -92.4019 178° South  Level Estimated
Mon 09:00:32 PM 42.5500 -92.4000 358° North  Level FlightAware Approximate
Mon 09:01:32 PM 42.5892 -92.4019 358° North  Level Estimated

Login

Don't have an account? Register now (free) for customized features, flight alerts, and more!